sensor_id;sensor_type;location;lat;lon;timestamp;P1;durP1;ratioP1;P2;durP2;ratioP2
6947;SDS011;3513;47.664;9.162;2023-08-01T00:01:49;13.70;;;5.00;;
6947;SDS011;3513;47.664;9.162;2023-08-01T00:04:15;8.90;;;4.90;;
6947;SDS011;3513;47.664;9.162;2023-08-01T00:06:41;11.43;;;5.60;;
6947;SDS011;3513;47.664;9.162;2023-08-01T00:09:07;12.97;;;5.93;;
6947;SDS011;3513;47.664;9.162;2023-08-01T00:11:32;9.47;;;5.23;;
6947;SDS011;3513;47.664;9.162;2023-08-01T00:13:58;7.97;;;4.83;;
6947;SDS011;3513;47.664;9.162;2023-08-01T00:16:23;11.77;;;6.30;;
6947;SDS011;3513;47.664;9.162;2023-08-01T00:18:49;12.47;;;6.03;;
6947;SDS011;3513;47.664;9.162;2023-08-01T00:21:15;15.23;;;5.60;;
6947;SDS011;3513;47.664;9.162;2023-08-01T00:23:40;8.23;;;5.93;;
6947;SDS011;3513;47.664;9.162;2023-08-01T00:26:06;13.03;;;5.77;;
6947;SDS011;3513;47.664;9.162;2023-08-01T00:28:32;9.17;;;5.10;;
6947;SDS011;3513;47.664;9.162;2023-08-01T00:31:04;10.37;;;5.90;;
6947;SDS011;3513;47.664;9.162;2023-08-01T00:33:30;10.90;;;5.73;;
6947;SDS011;3513;47.664;9.162;2023-08-01T00:35:56;11.60;;;6.03;;
6947;SDS011;3513;47.664;9.162;2023-08-01T00:38:22;16.53;;;6.60;;
6947;SDS011;3513;47.664;9.162;2023-08-01T00:40:47;7.50;;;5.30;;
6947;SDS011;3513;47.664;9.162;2023-08-01T00:43:13;10.73;;;5.70;;
6947;SDS011;3513;47.664;9.162;2023-08-01T00:45:38;8.70;;;5.97;;
6947;SDS011;3513;47.664;9.162;2023-08-01T00:48:04;11.13;;;6.60;;
6947;SDS011;3513;47.664;9.162;2023-08-01T00:50:30;19.93;;;6.27;;
6947;SDS011;3513;47.664;9.162;2023-08-01T00:52:55;14.47;;;6.33;;
6947;SDS011;3513;47.664;9.162;2023-08-01T00:55:21;12.10;;;6.47;;
6947;SDS011;3513;47.664;9.162;2023-08-01T00:57:48;14.77;;;6.13;;
6947;SDS011;3513;47.664;9.162;2023-08-01T01:00:14;15.40;;;6.73;;
6947;SDS011;3513;47.664;9.162;2023-08-01T01:02:39;18.63;;;6.47;;
6947;SDS011;3513;47.664;9.162;2023-08-01T01:05:05;15.00;;;6.67;;
6947;SDS011;3513;47.664;9.162;2023-08-01T01:07:31;21.07;;;5.90;;
6947;SDS011;3513;47.664;9.162;2023-08-01T01:09:58;10.27;;;6.90;;
6947;SDS011;3513;47.664;9.162;2023-08-01T01:12:23;12.80;;;6.50;;
6947;SDS011;3513;47.664;9.162;2023-08-01T01:14:49;13.00;;;6.53;;
6947;SDS011;3513;47.664;9.162;2023-08-01T01:17:14;8.90;;;5.20;;
6947;SDS011;3513;47.664;9.162;2023-08-01T01:19:40;14.47;;;6.50;;
6947;SDS011;3513;47.664;9.162;2023-08-01T01:22:06;11.47;;;6.17;;
6947;SDS011;3513;47.664;9.162;2023-08-01T01:24:34;9.90;;;5.20;;
6947;SDS011;3513;47.664;9.162;2023-08-01T01:27:00;11.93;;;6.87;;
6947;SDS011;3513;47.664;9.162;2023-08-01T01:29:29;14.00;;;5.93;;
6947;SDS011;3513;47.664;9.162;2023-08-01T01:31:55;13.37;;;5.40;;
6947;SDS011;3513;47.664;9.162;2023-08-01T01:34:23;12.87;;;6.47;;
6947;SDS011;3513;47.664;9.162;2023-08-01T01:36:49;12.60;;;6.07;;
6947;SDS011;3513;47.664;9.162;2023-08-01T01:39:14;13.07;;;6.00;;
6947;SDS011;3513;47.664;9.162;2023-08-01T01:41:40;15.37;;;6.10;;
6947;SDS011;3513;47.664;9.162;2023-08-01T01:44:05;8.67;;;5.97;;
6947;SDS011;3513;47.664;9.162;2023-08-01T01:46:31;14.10;;;7.20;;
6947;SDS011;3513;47.664;9.162;2023-08-01T01:48:56;21.77;;;6.10;;
6947;SDS011;3513;47.664;9.162;2023-08-01T01:51:26;15.77;;;6.70;;
6947;SDS011;3513;47.664;9.162;2023-08-01T01:53:52;12.93;;;6.33;;
6947;SDS011;3513;47.664;9.162;2023-08-01T01:56:17;10.70;;;6.63;;
6947;SDS011;3513;47.664;9.162;2023-08-01T01:58:43;11.70;;;5.77;;
6947;SDS011;3513;47.664;9.162;2023-08-01T02:01:09;12.57;;;6.90;;
6947;SDS011;3513;47.664;9.162;2023-08-01T02:03:34;14.20;;;6.13;;
6947;SDS011;3513;47.664;9.162;2023-08-01T02:06:01;13.50;;;6.20;;
6947;SDS011;3513;47.664;9.162;2023-08-01T02:08:28;13.87;;;7.07;;
6947;SDS011;3513;47.664;9.162;2023-08-01T02:10:54;12.80;;;7.10;;
6947;SDS011;3513;47.664;9.162;2023-08-01T02:13:22;15.67;;;6.87;;
6947;SDS011;3513;47.664;9.162;2023-08-01T02:15:52;9.00;;;5.90;;
6947;SDS011;3513;47.664;9.162;2023-08-01T02:18:18;12.10;;;6.40;;
6947;SDS011;3513;47.664;9.162;2023-08-01T02:20:44;10.10;;;7.30;;
6947;SDS011;3513;47.664;9.162;2023-08-01T02:23:09;28.00;;;7.03;;
6947;SDS011;3513;47.664;9.162;2023-08-01T02:25:38;12.87;;;6.70;;
6947;SDS011;3513;47.664;9.162;2023-08-01T02:28:05;9.30;;;6.50;;
6947;SDS011;3513;47.664;9.162;2023-08-01T02:30:30;12.07;;;5.60;;
6947;SDS011;3513;47.664;9.162;2023-08-01T02:32:56;9.00;;;6.03;;
6947;SDS011;3513;47.664;9.162;2023-08-01T02:35:21;12.27;;;6.13;;
6947;SDS011;3513;47.664;9.162;2023-08-01T02:37:47;12.93;;;5.87;;
6947;SDS011;3513;47.664;9.162;2023-08-01T02:40:13;8.70;;;6.23;;
6947;SDS011;3513;47.664;9.162;2023-08-01T02:42:38;10.43;;;6.97;;
6947;SDS011;3513;47.664;9.162;2023-08-01T02:45:04;12.87;;;6.13;;
6947;SDS011;3513;47.664;9.162;2023-08-01T02:47:30;9.37;;;6.53;;
6947;SDS011;3513;47.664;9.162;2023-08-01T02:49:55;14.90;;;6.73;;
6947;SDS011;3513;47.664;9.162;2023-08-01T02:52:21;11.27;;;6.07;;
6947;SDS011;3513;47.664;9.162;2023-08-01T02:54:47;13.77;;;6.63;;
6947;SDS011;3513;47.664;9.162;2023-08-01T02:57:12;20.90;;;7.03;;
6947;SDS011;3513;47.664;9.162;2023-08-01T02:59:38;17.13;;;7.13;;
6947;SDS011;3513;47.664;9.162;2023-08-01T03:02:04;14.10;;;7.20;;
6947;SDS011;3513;47.664;9.162;2023-08-01T03:04:29;9.53;;;5.60;;
6947;SDS011;3513;47.664;9.162;2023-08-01T03:06:55;12.57;;;5.93;;
6947;SDS011;3513;47.664;9.162;2023-08-01T03:09:20;11.90;;;5.80;;
6947;SDS011;3513;47.664;9.162;2023-08-01T03:11:46;8.67;;;6.17;;
6947;SDS011;3513;47.664;9.162;2023-08-01T03:14:11;15.33;;;6.17;;
6947;SDS011;3513;47.664;9.162;2023-08-01T03:16:37;12.37;;;6.63;;
6947;SDS011;3513;47.664;9.162;2023-08-01T03:19:02;12.30;;;6.70;;
6947;SDS011;3513;47.664;9.162;2023-08-01T03:21:32;12.10;;;7.40;;
6947;SDS011;3513;47.664;9.162;2023-08-01T03:23:58;9.03;;;6.30;;
6947;SDS011;3513;47.664;9.162;2023-08-01T03:26:24;15.00;;;6.00;;
6947;SDS011;3513;47.664;9.162;2023-08-01T03:28:49;16.67;;;7.07;;
6947;SDS011;3513;47.664;9.162;2023-08-01T03:31:15;7.63;;;5.87;;
6947;SDS011;3513;47.664;9.162;2023-08-01T03:33:41;10.33;;;6.33;;
6947;SDS011;3513;47.664;9.162;2023-08-01T03:36:06;12.53;;;5.73;;
6947;SDS011;3513;47.664;9.162;2023-08-01T03:38:32;18.50;;;6.40;;
6947;SDS011;3513;47.664;9.162;2023-08-01T03:40:57;10.60;;;6.20;;
6947;SDS011;3513;47.664;9.162;2023-08-01T03:43:23;7.33;;;5.30;;
6947;SDS011;3513;47.664;9.162;2023-08-01T03:45:49;15.30;;;6.30;;
6947;SDS011;3513;47.664;9.162;2023-08-01T03:48:16;6.60;;;5.17;;
6947;SDS011;3513;47.664;9.162;2023-08-01T03:50:42;10.53;;;5.53;;
6947;SDS011;3513;47.664;9.162;2023-08-01T03:53:07;11.63;;;5.73;;
6947;SDS011;3513;47.664;9.162;2023-08-01T03:55:33;10.87;;;6.57;;
6947;SDS011;3513;47.664;9.162;2023-08-01T03:57:58;8.70;;;4.80;;
6947;SDS011;3513;47.664;9.162;2023-08-01T04:00:24;9.03;;;5.00;;
6947;SDS011;3513;47.664;9.162;2023-08-01T04:02:49;9.87;;;6.23;;
6947;SDS011;3513;47.664;9.162;2023-08-01T04:05:15;9.27;;;5.20;;
6947;SDS011;3513;47.664;9.162;2023-08-01T04:07:41;11.20;;;5.27;;
6947;SDS011;3513;47.664;9.162;2023-08-01T04:10:06;9.87;;;6.13;;
6947;SDS011;3513;47.664;9.162;2023-08-01T04:12:33;10.27;;;5.07;;
6947;SDS011;3513;47.664;9.162;2023-08-01T04:14:59;5.73;;;5.03;;
6947;SDS011;3513;47.664;9.162;2023-08-01T04:17:25;7.43;;;4.70;;
6947;SDS011;3513;47.664;9.162;2023-08-01T04:19:51;9.43;;;5.93;;
6947;SDS011;3513;47.664;9.162;2023-08-01T04:22:16;13.30;;;4.83;;
6947;SDS011;3513;47.664;9.162;2023-08-01T04:24:42;13.00;;;5.37;;
6947;SDS011;3513;47.664;9.162;2023-08-01T04:27:08;14.53;;;5.30;;
6947;SDS011;3513;47.664;9.162;2023-08-01T04:29:34;8.50;;;5.13;;
6947;SDS011;3513;47.664;9.162;2023-08-01T04:31:59;7.40;;;5.13;;
6947;SDS011;3513;47.664;9.162;2023-08-01T04:34:25;8.97;;;4.67;;
6947;SDS011;3513;47.664;9.162;2023-08-01T04:36:51;9.27;;;5.50;;
6947;SDS011;3513;47.664;9.162;2023-08-01T04:39:16;15.60;;;6.13;;
6947;SDS011;3513;47.664;9.162;2023-08-01T04:41:42;10.47;;;5.20;;
6947;SDS011;3513;47.664;9.162;2023-08-01T04:44:07;6.27;;;4.70;;
6947;SDS011;3513;47.664;9.162;2023-08-01T04:46:33;11.60;;;5.53;;
6947;SDS011;3513;47.664;9.162;2023-08-01T04:48:59;8.97;;;5.87;;
6947;SDS011;3513;47.664;9.162;2023-08-01T04:51:24;10.33;;;5.00;;
6947;SDS011;3513;47.664;9.162;2023-08-01T04:53:50;7.83;;;5.07;;
6947;SDS011;3513;47.664;9.162;2023-08-01T04:56:16;11.23;;;5.10;;
6947;SDS011;3513;47.664;9.162;2023-08-01T04:58:41;8.50;;;4.70;;
6947;SDS011;3513;47.664;9.162;2023-08-01T05:01:07;5.80;;;4.27;;
6947;SDS011;3513;47.664;9.162;2023-08-01T05:03:33;12.30;;;5.07;;
6947;SDS011;3513;47.664;9.162;2023-08-01T05:05:58;8.53;;;4.87;;
6947;SDS011;3513;47.664;9.162;2023-08-01T05:08:24;7.70;;;3.83;;
6947;SDS011;3513;47.664;9.162;2023-08-01T05:10:49;9.33;;;4.60;;
6947;SDS011;3513;47.664;9.162;2023-08-01T05:13:15;7.67;;;5.13;;
6947;SDS011;3513;47.664;9.162;2023-08-01T05:15:43;7.93;;;4.40;;
6947;SDS011;3513;47.664;9.162;2023-08-01T05:18:10;12.13;;;5.30;;
6947;SDS011;3513;47.664;9.162;2023-08-01T05:20:35;7.10;;;4.43;;
6947;SDS011;3513;47.664;9.162;2023-08-01T05:23:01;8.70;;;4.70;;
6947;SDS011;3513;47.664;9.162;2023-08-01T05:25:26;15.60;;;4.47;;
6947;SDS011;3513;47.664;9.162;2023-08-01T05:27:52;8.70;;;5.10;;
6947;SDS011;3513;47.664;9.162;2023-08-01T05:30:17;12.87;;;4.47;;
6947;SDS011;3513;47.664;9.162;2023-08-01T05:32:43;15.73;;;5.60;;
6947;SDS011;3513;47.664;9.162;2023-08-01T05:35:10;12.97;;;4.93;;
6947;SDS011;3513;47.664;9.162;2023-08-01T05:37:36;11.90;;;4.73;;
6947;SDS011;3513;47.664;9.162;2023-08-01T05:40:04;14.17;;;5.20;;
6947;SDS011;3513;47.664;9.162;2023-08-01T05:42:30;8.73;;;4.93;;
6947;SDS011;3513;47.664;9.162;2023-08-01T05:44:56;4.57;;;3.60;;
6947;SDS011;3513;47.664;9.162;2023-08-01T05:47:21;10.83;;;5.47;;
6947;SDS011;3513;47.664;9.162;2023-08-01T05:49:50;9.60;;;5.07;;
6947;SDS011;3513;47.664;9.162;2023-08-01T05:52:15;9.00;;;5.00;;
6947;SDS011;3513;47.664;9.162;2023-08-01T05:54:41;10.17;;;4.70;;
6947;SDS011;3513;47.664;9.162;2023-08-01T05:57:07;10.80;;;4.77;;
6947;SDS011;3513;47.664;9.162;2023-08-01T05:59:33;10.80;;;4.67;;
6947;SDS011;3513;47.664;9.162;2023-08-01T06:01:59;10.43;;;5.10;;
6947;SDS011;3513;47.664;9.162;2023-08-01T06:04:24;9.97;;;4.93;;
6947;SDS011;3513;47.664;9.162;2023-08-01T06:06:50;8.03;;;4.77;;
6947;SDS011;3513;47.664;9.162;2023-08-01T06:09:15;6.87;;;4.30;;
6947;SDS011;3513;47.664;9.162;2023-08-01T06:11:41;11.60;;;5.17;;
6947;SDS011;3513;47.664;9.162;2023-08-01T06:14:07;10.23;;;4.83;;
6947;SDS011;3513;47.664;9.162;2023-08-01T06:16:33;7.70;;;4.50;;
6947;SDS011;3513;47.664;9.162;2023-08-01T06:18:59;10.83;;;5.17;;
6947;SDS011;3513;47.664;9.162;2023-08-01T06:21:25;13.00;;;5.20;;
6947;SDS011;3513;47.664;9.162;2023-08-01T06:23:51;8.00;;;5.10;;
6947;SDS011;3513;47.664;9.162;2023-08-01T06:26:16;10.13;;;5.40;;
6947;SDS011;3513;47.664;9.162;2023-08-01T06:28:42;9.43;;;5.53;;
6947;SDS011;3513;47.664;9.162;2023-08-01T06:31:07;5.70;;;4.07;;
6947;SDS011;3513;47.664;9.162;2023-08-01T06:33:33;8.53;;;5.17;;
6947;SDS011;3513;47.664;9.162;2023-08-01T06:35:58;10.80;;;4.70;;
6947;SDS011;3513;47.664;9.162;2023-08-01T06:38:24;10.30;;;4.80;;
6947;SDS011;3513;47.664;9.162;2023-08-01T06:40:49;11.13;;;5.33;;
6947;SDS011;3513;47.664;9.162;2023-08-01T06:43:15;7.67;;;4.70;;
6947;SDS011;3513;47.664;9.162;2023-08-01T06:45:41;17.63;;;5.97;;
6947;SDS011;3513;47.664;9.162;2023-08-01T06:48:06;16.53;;;5.00;;
6947;SDS011;3513;47.664;9.162;2023-08-01T06:50:33;13.83;;;5.03;;
6947;SDS011;3513;47.664;9.162;2023-08-01T06:52:58;11.90;;;5.97;;
6947;SDS011;3513;47.664;9.162;2023-08-01T06:55:25;9.43;;;4.90;;
6947;SDS011;3513;47.664;9.162;2023-08-01T06:57:51;12.70;;;5.73;;
6947;SDS011;3513;47.664;9.162;2023-08-01T07:00:17;9.33;;;4.43;;
6947;SDS011;3513;47.664;9.162;2023-08-01T07:02:42;14.73;;;6.07;;
6947;SDS011;3513;47.664;9.162;2023-08-01T07:05:08;7.50;;;5.23;;
6947;SDS011;3513;47.664;9.162;2023-08-01T07:07:34;12.70;;;6.00;;
6947;SDS011;3513;47.664;9.162;2023-08-01T07:09:59;13.30;;;5.33;;
6947;SDS011;3513;47.664;9.162;2023-08-01T07:12:25;8.40;;;5.20;;
6947;SDS011;3513;47.664;9.162;2023-08-01T07:14:50;11.73;;;4.90;;
6947;SDS011;3513;47.664;9.162;2023-08-01T07:17:16;9.30;;;4.60;;
6947;SDS011;3513;47.664;9.162;2023-08-01T07:19:42;13.17;;;4.53;;
6947;SDS011;3513;47.664;9.162;2023-08-01T07:22:08;15.20;;;6.33;;
6947;SDS011;3513;47.664;9.162;2023-08-01T07:24:34;13.97;;;4.43;;
6947;SDS011;3513;47.664;9.162;2023-08-01T07:26:59;13.57;;;5.63;;
6947;SDS011;3513;47.664;9.162;2023-08-01T07:29:25;9.20;;;5.13;;
6947;SDS011;3513;47.664;9.162;2023-08-01T07:31:50;12.67;;;5.20;;
6947;SDS011;3513;47.664;9.162;2023-08-01T07:34:16;9.00;;;5.17;;
6947;SDS011;3513;47.664;9.162;2023-08-01T07:36:42;9.93;;;4.43;;
6947;SDS011;3513;47.664;9.162;2023-08-01T07:39:07;9.07;;;5.43;;
6947;SDS011;3513;47.664;9.162;2023-08-01T07:41:33;13.87;;;6.17;;
6947;SDS011;3513;47.664;9.162;2023-08-01T07:44:00;13.20;;;6.10;;
6947;SDS011;3513;47.664;9.162;2023-08-01T07:46:30;12.60;;;6.10;;
6947;SDS011;3513;47.664;9.162;2023-08-01T07:48:56;9.73;;;5.07;;
6947;SDS011;3513;47.664;9.162;2023-08-01T07:51:22;18.87;;;5.77;;
6947;SDS011;3513;47.664;9.162;2023-08-01T07:53:47;10.33;;;5.67;;
6947;SDS011;3513;47.664;9.162;2023-08-01T07:56:15;6.30;;;4.60;;
6947;SDS011;3513;47.664;9.162;2023-08-01T07:58:41;10.47;;;4.73;;
6947;SDS011;3513;47.664;9.162;2023-08-01T08:01:06;12.60;;;5.60;;
6947;SDS011;3513;47.664;9.162;2023-08-01T08:03:32;7.53;;;4.87;;
6947;SDS011;3513;47.664;9.162;2023-08-01T08:05:57;21.83;;;5.93;;
6947;SDS011;3513;47.664;9.162;2023-08-01T08:08:23;11.47;;;5.93;;
6947;SDS011;3513;47.664;9.162;2023-08-01T08:10:49;9.27;;;4.80;;
6947;SDS011;3513;47.664;9.162;2023-08-01T08:13:15;11.93;;;5.90;;
6947;SDS011;3513;47.664;9.162;2023-08-01T08:15:41;7.77;;;4.83;;
6947;SDS011;3513;47.664;9.162;2023-08-01T08:18:06;6.30;;;4.80;;
6947;SDS011;3513;47.664;9.162;2023-08-01T08:20:34;9.03;;;4.73;;
6947;SDS011;3513;47.664;9.162;2023-08-01T08:23:07;10.20;;;5.47;;
6947;SDS011;3513;47.664;9.162;2023-08-01T08:25:33;9.07;;;5.37;;
6947;SDS011;3513;47.664;9.162;2023-08-01T08:27:59;19.17;;;6.30;;
6947;SDS011;3513;47.664;9.162;2023-08-01T08:30:24;12.70;;;4.97;;
6947;SDS011;3513;47.664;9.162;2023-08-01T08:32:50;12.93;;;5.10;;
6947;SDS011;3513;47.664;9.162;2023-08-01T08:35:15;10.53;;;5.40;;
6947;SDS011;3513;47.664;9.162;2023-08-01T08:37:41;8.97;;;5.57;;
6947;SDS011;3513;47.664;9.162;2023-08-01T08:40:07;10.47;;;5.33;;
6947;SDS011;3513;47.664;9.162;2023-08-01T08:42:33;10.97;;;5.03;;
6947;SDS011;3513;47.664;9.162;2023-08-01T08:45:01;10.60;;;4.97;;
6947;SDS011;3513;47.664;9.162;2023-08-01T08:47:28;11.70;;;6.23;;
6947;SDS011;3513;47.664;9.162;2023-08-01T08:50:00;11.70;;;5.67;;
6947;SDS011;3513;47.664;9.162;2023-08-01T08:52:26;9.93;;;4.87;;
6947;SDS011;3513;47.664;9.162;2023-08-01T08:54:52;7.60;;;4.90;;
6947;SDS011;3513;47.664;9.162;2023-08-01T08:57:18;16.57;;;5.43;;
6947;SDS011;3513;47.664;9.162;2023-08-01T08:59:44;11.13;;;5.30;;
6947;SDS011;3513;47.664;9.162;2023-08-01T09:02:11;8.47;;;5.13;;
6947;SDS011;3513;47.664;9.162;2023-08-01T09:04:39;16.57;;;6.20;;
6947;SDS011;3513;47.664;9.162;2023-08-01T09:07:06;9.60;;;5.40;;
6947;SDS011;3513;47.664;9.162;2023-08-01T09:09:34;9.93;;;5.67;;
6947;SDS011;3513;47.664;9.162;2023-08-01T09:12:00;11.70;;;6.73;;
6947;SDS011;3513;47.664;9.162;2023-08-01T09:14:25;16.40;;;6.50;;
6947;SDS011;3513;47.664;9.162;2023-08-01T09:16:51;13.50;;;5.10;;
6947;SDS011;3513;47.664;9.162;2023-08-01T09:19:20;8.17;;;5.53;;
6947;SDS011;3513;47.664;9.162;2023-08-01T09:21:48;10.53;;;6.10;;
6947;SDS011;3513;47.664;9.162;2023-08-01T09:24:18;6.70;;;5.10;;
6947;SDS011;3513;47.664;9.162;2023-08-01T09:26:45;15.20;;;6.30;;
6947;SDS011;3513;47.664;9.162;2023-08-01T09:29:11;9.33;;;6.13;;
6947;SDS011;3513;47.664;9.162;2023-08-01T09:31:37;13.40;;;5.77;;
6947;SDS011;3513;47.664;9.162;2023-08-01T09:34:06;9.23;;;6.33;;
6947;SDS011;3513;47.664;9.162;2023-08-01T09:36:42;10.23;;;6.10;;
6947;SDS011;3513;47.664;9.162;2023-08-01T09:39:08;14.00;;;6.70;;
6947;SDS011;3513;47.664;9.162;2023-08-01T09:41:33;10.30;;;5.97;;
6947;SDS011;3513;47.664;9.162;2023-08-01T09:43:59;12.77;;;5.63;;
6947;SDS011;3513;47.664;9.162;2023-08-01T09:46:24;11.57;;;6.93;;
6947;SDS011;3513;47.664;9.162;2023-08-01T09:48:50;11.57;;;7.03;;
6947;SDS011;3513;47.664;9.162;2023-08-01T09:51:16;10.13;;;6.07;;
6947;SDS011;3513;47.664;9.162;2023-08-01T09:56:15;9.83;;;6.17;;
6947;SDS011;3513;47.664;9.162;2023-08-01T09:58:45;13.67;;;6.80;;
6947;SDS011;3513;47.664;9.162;2023-08-01T10:01:12;11.17;;;6.57;;
6947;SDS011;3513;47.664;9.162;2023-08-01T10:03:40;13.50;;;5.70;;
6947;SDS011;3513;47.664;9.162;2023-08-01T10:06:13;14.50;;;7.83;;
6947;SDS011;3513;47.664;9.162;2023-08-01T10:08:43;10.60;;;5.73;;
6947;SDS011;3513;47.664;9.162;2023-08-01T10:11:09;11.37;;;4.80;;
6947;SDS011;3513;47.664;9.162;2023-08-01T10:13:37;13.60;;;6.10;;
6947;SDS011;3513;47.664;9.162;2023-08-01T10:16:03;11.87;;;6.53;;
6947;SDS011;3513;47.664;9.162;2023-08-01T10:18:30;10.37;;;6.13;;
6947;SDS011;3513;47.664;9.162;2023-08-01T10:20:56;13.67;;;5.27;;
6947;SDS011;3513;47.664;9.162;2023-08-01T10:23:22;14.27;;;6.53;;
6947;SDS011;3513;47.664;9.162;2023-08-01T10:25:49;11.73;;;6.17;;
6947;SDS011;3513;47.664;9.162;2023-08-01T10:28:15;12.33;;;6.13;;
6947;SDS011;3513;47.664;9.162;2023-08-01T10:30:40;18.43;;;6.70;;
6947;SDS011;3513;47.664;9.162;2023-08-01T10:33:06;8.80;;;5.10;;
6947;SDS011;3513;47.664;9.162;2023-08-01T10:35:37;12.23;;;6.53;;
6947;SDS011;3513;47.664;9.162;2023-08-01T10:38:04;7.37;;;5.40;;
6947;SDS011;3513;47.664;9.162;2023-08-01T10:43:05;7.73;;;5.17;;
6947;SDS011;3513;47.664;9.162;2023-08-01T10:45:31;9.93;;;5.40;;
6947;SDS011;3513;47.664;9.162;2023-08-01T10:48:09;10.43;;;5.60;;
6947;SDS011;3513;47.664;9.162;2023-08-01T10:50:36;10.83;;;5.70;;
6947;SDS011;3513;47.664;9.162;2023-08-01T10:53:03;9.43;;;5.33;;
6947;SDS011;3513;47.664;9.162;2023-08-01T10:55:40;14.43;;;6.00;;
6947;SDS011;3513;47.664;9.162;2023-08-01T10:58:10;13.63;;;5.70;;
6947;SDS011;3513;47.664;9.162;2023-08-01T11:00:36;7.50;;;4.63;;
6947;SDS011;3513;47.664;9.162;2023-08-01T11:03:01;7.90;;;5.23;;
6947;SDS011;3513;47.664;9.162;2023-08-01T11:05:27;13.83;;;6.10;;
6947;SDS011;3513;47.664;9.162;2023-08-01T11:07:55;9.20;;;4.77;;
6947;SDS011;3513;47.664;9.162;2023-08-01T11:10:26;6.67;;;4.97;;
6947;SDS011;3513;47.664;9.162;2023-08-01T11:12:56;16.87;;;6.20;;
6947;SDS011;3513;47.664;9.162;2023-08-01T11:15:22;10.43;;;5.13;;
6947;SDS011;3513;47.664;9.162;2023-08-01T11:17:49;7.30;;;4.90;;
6947;SDS011;3513;47.664;9.162;2023-08-01T11:20:16;18.57;;;6.17;;
6947;SDS011;3513;47.664;9.162;2023-08-01T11:22:53;8.80;;;5.33;;
6947;SDS011;3513;47.664;9.162;2023-08-01T11:25:19;5.53;;;4.03;;
6947;SDS011;3513;47.664;9.162;2023-08-01T11:27:57;9.60;;;4.87;;
6947;SDS011;3513;47.664;9.162;2023-08-01T11:30:29;10.53;;;4.93;;
6947;SDS011;3513;47.664;9.162;2023-08-01T11:32:56;9.53;;;4.70;;
6947;SDS011;3513;47.664;9.162;2023-08-01T11:35:22;5.73;;;3.27;;
6947;SDS011;3513;47.664;9.162;2023-08-01T11:37:47;7.17;;;4.90;;
6947;SDS011;3513;47.664;9.162;2023-08-01T11:40:15;6.67;;;4.30;;
6947;SDS011;3513;47.664;9.162;2023-08-01T11:42:41;8.30;;;4.07;;
6947;SDS011;3513;47.664;9.162;2023-08-01T11:45:11;6.07;;;3.83;;
6947;SDS011;3513;47.664;9.162;2023-08-01T11:47:38;8.57;;;3.90;;
6947;SDS011;3513;47.664;9.162;2023-08-01T11:50:10;8.50;;;4.23;;
6947;SDS011;3513;47.664;9.162;2023-08-01T11:52:35;12.53;;;3.20;;
6947;SDS011;3513;47.664;9.162;2023-08-01T11:55:01;5.83;;;3.33;;
6947;SDS011;3513;47.664;9.162;2023-08-01T11:57:27;4.40;;;3.33;;
6947;SDS011;3513;47.664;9.162;2023-08-01T11:59:54;5.50;;;2.87;;
6947;SDS011;3513;47.664;9.162;2023-08-01T12:02:21;11.67;;;2.83;;
6947;SDS011;3513;47.664;9.162;2023-08-01T12:04:48;4.13;;;2.97;;
6947;SDS011;3513;47.664;9.162;2023-08-01T12:07:14;4.20;;;2.83;;
6947;SDS011;3513;47.664;9.162;2023-08-01T12:09:41;4.23;;;2.83;;
6947;SDS011;3513;47.664;9.162;2023-08-01T12:12:08;4.30;;;2.87;;
6947;SDS011;3513;47.664;9.162;2023-08-01T12:14:34;4.13;;;2.43;;
6947;SDS011;3513;47.664;9.162;2023-08-01T12:17:05;2.30;;;2.10;;
6947;SDS011;3513;47.664;9.162;2023-08-01T12:19:30;6.40;;;3.37;;
6947;SDS011;3513;47.664;9.162;2023-08-01T12:21:58;2.73;;;2.13;;
6947;SDS011;3513;47.664;9.162;2023-08-01T12:24:24;3.77;;;2.50;;
6947;SDS011;3513;47.664;9.162;2023-08-01T12:26:50;4.17;;;2.30;;
6947;SDS011;3513;47.664;9.162;2023-08-01T12:29:15;2.23;;;2.03;;
6947;SDS011;3513;47.664;9.162;2023-08-01T12:31:41;2.40;;;2.17;;
6947;SDS011;3513;47.664;9.162;2023-08-01T12:34:07;2.20;;;1.93;;
6947;SDS011;3513;47.664;9.162;2023-08-01T12:36:32;2.77;;;2.10;;
6947;SDS011;3513;47.664;9.162;2023-08-01T12:38:58;2.87;;;2.57;;
6947;SDS011;3513;47.664;9.162;2023-08-01T12:41:23;3.10;;;1.80;;
6947;SDS011;3513;47.664;9.162;2023-08-01T12:43:49;3.37;;;1.67;;
6947;SDS011;3513;47.664;9.162;2023-08-01T12:46:15;1.90;;;1.50;;
6947;SDS011;3513;47.664;9.162;2023-08-01T12:48:40;2.50;;;1.70;;
6947;SDS011;3513;47.664;9.162;2023-08-01T12:51:06;8.30;;;1.50;;
6947;SDS011;3513;47.664;9.162;2023-08-01T12:53:32;1.53;;;1.43;;
6947;SDS011;3513;47.664;9.162;2023-08-01T12:55:58;2.33;;;1.30;;
6947;SDS011;3513;47.664;9.162;2023-08-01T12:58:24;2.97;;;1.87;;
6947;SDS011;3513;47.664;9.162;2023-08-01T13:00:49;2.50;;;1.30;;
6947;SDS011;3513;47.664;9.162;2023-08-01T13:03:15;3.30;;;1.20;;
6947;SDS011;3513;47.664;9.162;2023-08-01T13:05:41;2.03;;;1.40;;
6947;SDS011;3513;47.664;9.162;2023-08-01T13:08:07;3.13;;;1.20;;
6947;SDS011;3513;47.664;9.162;2023-08-01T13:10:34;9.53;;;1.30;;
6947;SDS011;3513;47.664;9.162;2023-08-01T13:13:01;1.60;;;1.30;;
6947;SDS011;3513;47.664;9.162;2023-08-01T13:15:27;4.60;;;1.63;;
6947;SDS011;3513;47.664;9.162;2023-08-01T13:17:53;2.40;;;1.47;;
6947;SDS011;3513;47.664;9.162;2023-08-01T13:20:19;4.40;;;2.03;;
6947;SDS011;3513;47.664;9.162;2023-08-01T13:22:45;2.80;;;1.70;;
6947;SDS011;3513;47.664;9.162;2023-08-01T13:25:15;10.30;;;1.73;;
6947;SDS011;3513;47.664;9.162;2023-08-01T13:27:41;4.40;;;1.50;;
6947;SDS011;3513;47.664;9.162;2023-08-01T13:30:07;3.67;;;1.20;;
6947;SDS011;3513;47.664;9.162;2023-08-01T13:32:34;1.90;;;1.30;;
6947;SDS011;3513;47.664;9.162;2023-08-01T13:34:59;1.97;;;1.27;;
6947;SDS011;3513;47.664;9.162;2023-08-01T13:37:25;1.53;;;1.40;;
6947;SDS011;3513;47.664;9.162;2023-08-01T13:39:51;1.40;;;0.93;;
6947;SDS011;3513;47.664;9.162;2023-08-01T13:42:17;1.73;;;1.43;;
6947;SDS011;3513;47.664;9.162;2023-08-01T13:44:42;2.43;;;1.63;;
6947;SDS011;3513;47.664;9.162;2023-08-01T13:47:08;4.40;;;1.57;;
6947;SDS011;3513;47.664;9.162;2023-08-01T13:49:33;2.13;;;1.40;;
6947;SDS011;3513;47.664;9.162;2023-08-01T13:51:59;1.00;;;0.83;;
6947;SDS011;3513;47.664;9.162;2023-08-01T13:54:25;7.23;;;1.27;;
6947;SDS011;3513;47.664;9.162;2023-08-01T13:56:51;2.00;;;1.60;;
6947;SDS011;3513;47.664;9.162;2023-08-01T13:59:18;2.10;;;1.60;;
6947;SDS011;3513;47.664;9.162;2023-08-01T14:01:44;2.83;;;1.50;;
6947;SDS011;3513;47.664;9.162;2023-08-01T14:04:10;2.87;;;1.40;;
6947;SDS011;3513;47.664;9.162;2023-08-01T14:06:39;2.27;;;1.70;;
6947;SDS011;3513;47.664;9.162;2023-08-01T14:09:05;2.63;;;2.07;;
6947;SDS011;3513;47.664;9.162;2023-08-01T14:11:30;3.00;;;2.13;;
6947;SDS011;3513;47.664;9.162;2023-08-01T14:13:56;1.70;;;1.60;;
6947;SDS011;3513;47.664;9.162;2023-08-01T14:16:22;1.40;;;1.20;;
6947;SDS011;3513;47.664;9.162;2023-08-01T14:18:48;1.57;;;1.20;;
6947;SDS011;3513;47.664;9.162;2023-08-01T14:21:13;2.97;;;1.83;;
6947;SDS011;3513;47.664;9.162;2023-08-01T14:23:39;4.80;;;2.13;;
6947;SDS011;3513;47.664;9.162;2023-08-01T14:26:06;5.00;;;2.97;;
6947;SDS011;3513;47.664;9.162;2023-08-01T14:28:32;8.30;;;2.80;;
6947;SDS011;3513;47.664;9.162;2023-08-01T14:30:59;3.23;;;2.00;;
6947;SDS011;3513;47.664;9.162;2023-08-01T14:33:27;2.80;;;2.17;;
6947;SDS011;3513;47.664;9.162;2023-08-01T14:35:53;4.77;;;2.50;;
6947;SDS011;3513;47.664;9.162;2023-08-01T14:38:18;4.70;;;2.80;;
6947;SDS011;3513;47.664;9.162;2023-08-01T14:40:44;5.03;;;3.10;;
6947;SDS011;3513;47.664;9.162;2023-08-01T14:43:10;5.87;;;2.97;;
6947;SDS011;3513;47.664;9.162;2023-08-01T14:45:39;5.60;;;3.13;;
6947;SDS011;3513;47.664;9.162;2023-08-01T14:48:05;4.53;;;2.97;;
6947;SDS011;3513;47.664;9.162;2023-08-01T14:50:31;2.73;;;2.40;;
6947;SDS011;3513;47.664;9.162;2023-08-01T14:52:57;5.93;;;2.27;;
6947;SDS011;3513;47.664;9.162;2023-08-01T14:55:22;3.60;;;2.07;;
6947;SDS011;3513;47.664;9.162;2023-08-01T14:57:48;2.50;;;1.80;;
6947;SDS011;3513;47.664;9.162;2023-08-01T15:00:14;8.50;;;1.83;;
6947;SDS011;3513;47.664;9.162;2023-08-01T15:02:40;3.17;;;1.83;;
6947;SDS011;3513;47.664;9.162;2023-08-01T15:05:06;2.53;;;2.33;;
6947;SDS011;3513;47.664;9.162;2023-08-01T15:07:32;2.03;;;1.60;;